createdAt,value
2022-10-16T00:00:23.245Z,9.80
2022-10-16T00:02:52.632Z,8.17
2022-10-16T00:05:22.061Z,8.80
2022-10-16T00:07:54.032Z,8.80
2022-10-16T00:10:23.474Z,7.90
2022-10-16T00:12:52.985Z,9.50
2022-10-16T00:15:22.578Z,9.90
2022-10-16T00:17:51.993Z,8.13
2022-10-16T00:20:21.432Z,8.70
2022-10-16T00:22:50.849Z,7.93
2022-10-16T00:25:22.853Z,7.50
2022-10-16T00:27:52.221Z,6.63
2022-10-16T00:30:21.606Z,6.43
2022-10-16T00:32:50.990Z,7.43
2022-10-16T00:35:20.446Z,6.47
2022-10-16T00:37:49.830Z,7.20
2022-10-16T00:40:24.667Z,5.77
2022-10-16T00:42:54.039Z,5.30
2022-10-16T00:45:23.414Z,5.00
2022-10-16T00:47:53.286Z,5.27
2022-10-16T00:50:26.674Z,4.17
2022-10-16T00:52:56.624Z,4.30
2022-10-16T00:55:30.887Z,4.23
2022-10-16T00:58:01.566Z,4.10
2022-10-16T01:00:31.121Z,3.17
2022-10-16T01:03:02.849Z,3.83
2022-10-16T01:05:37.412Z,3.50
2022-10-16T01:08:12.402Z,3.50
2022-10-16T01:10:48.016Z,2.97
2022-10-16T01:13:22.157Z,2.87
2022-10-16T01:15:57.241Z,3.90
2022-10-16T01:18:32.914Z,3.20
2022-10-16T01:21:06.304Z,3.37
2022-10-16T01:23:45.034Z,2.83
2022-10-16T01:26:37.134Z,2.70
2022-10-16T01:29:13.273Z,3.10
2022-10-16T01:31:44.456Z,3.20
2022-10-16T01:34:17.322Z,2.80
2022-10-16T01:36:51.037Z,2.50
2022-10-16T01:39:22.737Z,2.87
2022-10-16T01:41:57.602Z,2.87
2022-10-16T01:44:32.331Z,2.63
2022-10-16T01:47:02.250Z,3.13
2022-10-16T01:49:36.301Z,2.77
2022-10-16T01:52:11.756Z,3.00
2022-10-16T01:54:43.431Z,2.63
2022-10-16T01:57:14.085Z,2.60
2022-10-16T01:59:47.494Z,2.67
2022-10-16T02:02:19.126Z,2.60
2022-10-16T02:04:50.487Z,2.53
2022-10-16T02:07:19.993Z,2.53
2022-10-16T02:09:49.434Z,2.70
2022-10-16T02:12:23.153Z,2.17
2022-10-16T02:14:55.268Z,1.97
2022-10-16T02:17:25.070Z,2.60
2022-10-16T02:19:56.263Z,2.50
2022-10-16T02:22:29.210Z,2.40
2022-10-16T02:25:01.564Z,1.90
2022-10-16T02:27:35.287Z,2.30
2022-10-16T02:30:11.369Z,2.53
2022-10-16T02:32:42.765Z,3.13
2022-10-16T02:35:12.426Z,1.80
2022-10-16T02:37:42.755Z,2.93
2022-10-16T02:40:13.240Z,2.43
2022-10-16T02:42:43.748Z,2.10
2022-10-16T02:45:15.956Z,2.13
2022-10-16T02:47:45.330Z,2.97
2022-10-16T02:50:14.755Z,3.50
2022-10-16T02:52:44.149Z,1.90
2022-10-16T02:55:13.537Z,2.20
2022-10-16T02:57:42.982Z,2.37
2022-10-16T03:00:18.631Z,1.97
2022-10-16T03:02:48.397Z,2.27
2022-10-16T03:05:18.259Z,2.13
2022-10-16T03:07:47.666Z,2.47
2022-10-16T03:10:17.158Z,1.93
2022-10-16T03:12:46.559Z,2.20
2022-10-16T03:15:18.554Z,1.73
2022-10-16T03:17:48.077Z,1.87
2022-10-16T03:20:17.628Z,2.23
2022-10-16T03:22:47.021Z,1.83
2022-10-16T03:25:16.621Z,1.80
2022-10-16T03:27:46.040Z,2.40
2022-10-16T03:30:18.322Z,2.27
2022-10-16T03:32:47.877Z,1.90
2022-10-16T03:35:17.436Z,2.47
2022-10-16T03:37:46.818Z,2.20
2022-10-16T03:40:16.235Z,2.33
2022-10-16T03:42:46.321Z,5.10
2022-10-16T03:45:18.325Z,1.83
2022-10-16T03:47:48.502Z,2.00
2022-10-16T03:50:18.125Z,2.13
2022-10-16T03:52:47.498Z,2.20
2022-10-16T03:55:17.169Z,1.90
2022-10-16T03:57:46.559Z,2.47
2022-10-16T04:00:19.050Z,1.87
2022-10-16T04:02:48.462Z,2.57
2022-10-16T04:05:18.327Z,2.20
2022-10-16T04:07:47.718Z,1.80
2022-10-16T04:10:17.256Z,1.97
2022-10-16T04:12:46.650Z,1.57
2022-10-16T04:15:18.822Z,1.73
2022-10-16T04:17:48.201Z,1.60
2022-10-16T04:20:17.773Z,1.50
2022-10-16T04:22:47.174Z,2.30
2022-10-16T04:25:16.541Z,2.77
2022-10-16T04:27:46.301Z,1.80
2022-10-16T04:30:18.557Z,1.80
2022-10-16T04:32:51.795Z,1.57
2022-10-16T04:35:21.687Z,1.57
2022-10-16T04:37:51.508Z,1.60
2022-10-16T04:40:21.092Z,2.10
2022-10-16T04:42:50.478Z,1.20
2022-10-16T04:45:22.425Z,1.60
2022-10-16T04:47:51.790Z,1.60
2022-10-16T04:50:21.189Z,1.70
2022-10-16T04:52:50.546Z,2.00
2022-10-16T04:55:19.970Z,1.93
2022-10-16T04:57:49.406Z,1.70
2022-10-16T05:00:19.069Z,3.27
2022-10-16T05:02:51.058Z,1.27
2022-10-16T05:05:20.637Z,2.27
2022-10-16T05:07:50.594Z,1.60
2022-10-16T05:10:20.101Z,2.40
2022-10-16T05:12:49.898Z,2.00
2022-10-16T05:15:19.445Z,2.20
2022-10-16T05:17:51.393Z,2.27
2022-10-16T05:20:20.794Z,2.10
2022-10-16T05:22:50.190Z,3.33
2022-10-16T05:25:19.941Z,2.33
2022-10-16T05:27:51.191Z,2.30
2022-10-16T05:30:21.486Z,2.87
2022-10-16T05:32:54.385Z,2.70
2022-10-16T05:35:24.695Z,2.50
2022-10-16T05:37:54.073Z,3.10
2022-10-16T05:40:23.934Z,2.60
2022-10-16T05:42:53.326Z,2.87
2022-10-16T05:45:22.683Z,2.90
2022-10-16T05:47:54.658Z,3.10
2022-10-16T05:50:24.064Z,3.30
2022-10-16T05:52:53.433Z,3.37
2022-10-16T05:55:22.855Z,3.20
2022-10-16T05:57:52.241Z,2.50
2022-10-16T06:00:21.616Z,3.27
2022-10-16T06:02:50.990Z,3.40
2022-10-16T06:05:22.962Z,3.03
2022-10-16T06:07:52.358Z,2.80
2022-10-16T06:10:21.724Z,3.20
2022-10-16T06:12:51.120Z,3.20
2022-10-16T06:15:20.504Z,3.30
2022-10-16T06:17:49.873Z,2.40
2022-10-16T06:20:19.258Z,3.00
2022-10-16T06:22:51.236Z,2.10
2022-10-16T06:25:20.593Z,2.90
2022-10-16T06:27:49.951Z,3.13
2022-10-16T06:30:19.350Z,4.57
2022-10-16T06:32:48.781Z,4.53
2022-10-16T06:35:18.184Z,4.47
2022-10-16T06:37:47.561Z,3.70
2022-10-16T06:40:19.602Z,3.37
2022-10-16T06:42:49.017Z,2.20
2022-10-16T06:45:18.438Z,3.53
2022-10-16T06:47:47.845Z,2.77
2022-10-16T06:50:17.409Z,4.27
2022-10-16T06:52:46.785Z,3.57
2022-10-16T06:55:18.977Z,4.23
2022-10-16T06:57:50.677Z,2.80
2022-10-16T07:00:20.270Z,10.20
2022-10-16T07:02:49.688Z,2.77
2022-10-16T07:05:19.081Z,7.10
2022-10-16T07:07:48.452Z,14.87
2022-10-16T07:10:20.473Z,4.10
2022-10-16T07:12:49.855Z,7.67
2022-10-16T07:15:19.373Z,4.57
2022-10-16T07:17:48.729Z,6.80
2022-10-16T07:20:18.124Z,4.23
2022-10-16T07:22:47.550Z,4.83
2022-10-16T07:25:19.690Z,3.77
2022-10-16T07:27:49.082Z,4.73
2022-10-16T07:30:18.546Z,2.90
2022-10-16T07:32:47.962Z,3.20
2022-10-16T07:35:17.602Z,3.57
2022-10-16T07:37:48.489Z,3.47
2022-10-16T07:40:20.518Z,2.60
2022-10-16T07:42:49.928Z,3.10
2022-10-16T07:45:19.312Z,3.87
2022-10-16T07:47:48.669Z,2.70
2022-10-16T07:50:18.303Z,2.20
2022-10-16T07:52:47.661Z,4.13
2022-10-16T07:55:17.104Z,2.33
2022-10-16T07:57:49.106Z,4.10
2022-10-16T08:00:18.726Z,2.33
2022-10-16T08:02:48.146Z,3.23
2022-10-16T08:05:17.848Z,2.90
2022-10-16T08:07:52.182Z,3.63
2022-10-16T08:10:22.946Z,3.23
2022-10-16T08:12:55.021Z,3.30
2022-10-16T08:15:24.870Z,2.63
2022-10-16T08:18:02.133Z,2.70
2022-10-16T08:20:32.809Z,3.97
2022-10-16T08:23:02.844Z,3.57
2022-10-16T08:25:32.270Z,4.00
2022-10-16T08:28:04.214Z,4.20
2022-10-16T08:30:33.580Z,2.97
2022-10-16T08:33:03.052Z,2.87
2022-10-16T08:35:32.466Z,3.57
2022-10-16T08:38:01.891Z,3.60
2022-10-16T08:40:34.366Z,2.83
2022-10-16T08:43:20.165Z,3.17
2022-10-16T08:46:02.482Z,3.33
2022-10-16T08:48:36.994Z,6.07
2022-10-16T08:51:07.049Z,3.13
2022-10-16T08:53:42.746Z,2.83
2022-10-16T08:56:12.149Z,2.70
2022-10-16T08:58:44.159Z,3.50
2022-10-16T09:01:16.636Z,3.20
2022-10-16T09:04:10.288Z,2.77
2022-10-16T09:06:46.631Z,2.90
2022-10-16T09:09:30.733Z,2.60
2022-10-16T09:12:03.490Z,2.80
2022-10-16T09:14:55.010Z,2.70
2022-10-16T09:17:43.019Z,2.70
2022-10-16T09:20:29.307Z,2.20
2022-10-16T09:23:11.887Z,2.37
2022-10-16T09:25:42.882Z,2.40
2022-10-16T09:28:12.836Z,2.13
2022-10-16T09:30:44.953Z,4.57
2022-10-16T09:33:15.994Z,2.30
2022-10-16T09:35:47.110Z,2.40
2022-10-16T09:38:29.338Z,1.53
2022-10-16T09:41:03.193Z,1.53
2022-10-16T09:43:38.042Z,2.20
2022-10-16T09:46:11.531Z,1.90
2022-10-16T09:48:43.354Z,1.73
2022-10-16T09:51:21.848Z,1.90
2022-10-16T09:53:54.678Z,1.07
2022-10-16T09:56:29.097Z,1.77
2022-10-16T09:58:59.656Z,1.70
2022-10-16T10:01:34.571Z,1.37
2022-10-16T10:04:04.574Z,1.23
2022-10-16T10:06:38.847Z,1.63
2022-10-16T10:09:10.425Z,2.30
2022-10-16T10:11:41.441Z,1.87
2022-10-16T10:14:37.330Z,1.40
2022-10-16T10:17:17.352Z,2.03
2022-10-16T10:19:50.728Z,2.30
2022-10-16T10:22:21.809Z,2.00
2022-10-16T10:25:03.921Z,2.13
2022-10-16T10:27:42.222Z,1.63
2022-10-16T10:30:18.516Z,1.07
2022-10-16T10:32:55.986Z,1.30
2022-10-16T10:35:28.625Z,1.60
2022-10-16T10:38:07.760Z,1.50
2022-10-16T10:40:47.877Z,1.40
2022-10-16T10:43:26.622Z,3.03
2022-10-16T10:45:58.861Z,1.87
2022-10-16T10:48:47.140Z,3.13
2022-10-16T10:51:23.457Z,1.57
2022-10-16T10:53:56.629Z,1.37
2022-10-16T10:56:45.338Z,1.67
2022-10-16T10:59:36.419Z,1.00
2022-10-16T11:02:09.996Z,1.37
2022-10-16T11:05:07.077Z,2.33
2022-10-16T11:07:38.706Z,2.40
2022-10-16T11:10:16.129Z,0.83
2022-10-16T11:12:47.922Z,1.50
2022-10-16T11:15:20.473Z,1.47
2022-10-16T11:17:53.869Z,1.20
2022-10-16T11:20:28.415Z,1.97
2022-10-16T11:23:00.542Z,1.40
2022-10-16T11:25:31.582Z,1.80
2022-10-16T11:28:05.731Z,1.10
2022-10-16T11:30:44.621Z,1.20
2022-10-16T11:33:32.530Z,1.23
2022-10-16T11:36:10.398Z,1.00
2022-10-16T11:38:45.335Z,1.50
2022-10-16T11:41:22.129Z,0.70
2022-10-16T11:44:00.060Z,0.80
2022-10-16T11:46:29.952Z,1.17
2022-10-16T11:49:04.912Z,1.53
2022-10-16T11:51:40.793Z,1.00
2022-10-16T11:54:22.480Z,1.20
2022-10-16T11:56:53.509Z,1.03
2022-10-16T11:59:27.998Z,1.10
2022-10-16T12:02:00.731Z,1.40
2022-10-16T12:04:35.134Z,2.73
2022-10-16T12:07:10.937Z,1.10
2022-10-16T12:09:42.281Z,3.63
2022-10-16T12:12:29.312Z,3.00
2022-10-16T12:15:17.821Z,1.33
2022-10-16T12:17:52.019Z,1.50
2022-10-16T12:20:31.677Z,1.47
2022-10-16T12:23:05.703Z,3.47
2022-10-16T12:25:37.024Z,1.47
2022-10-16T12:28:08.813Z,1.20
2022-10-16T12:30:39.344Z,2.20
2022-10-16T12:33:10.709Z,4.60
2022-10-16T12:35:48.022Z,2.50
2022-10-16T12:38:23.102Z,1.07
2022-10-16T12:41:02.019Z,1.80
2022-10-16T12:43:40.233Z,0.80
2022-10-16T12:46:26.212Z,2.20
2022-10-16T12:49:06.586Z,1.07
2022-10-16T12:51:39.200Z,1.67
2022-10-16T12:54:17.158Z,2.70
2022-10-16T12:56:56.932Z,1.47
2022-10-16T12:59:34.962Z,1.50
2022-10-16T13:02:21.926Z,1.90
2022-10-16T13:05:03.558Z,2.70
2022-10-16T13:07:48.722Z,1.20
2022-10-16T13:10:28.408Z,2.80
2022-10-16T13:13:17.649Z,2.63
2022-10-16T13:15:57.832Z,1.40
2022-10-16T13:18:31.954Z,0.90
2022-10-16T13:21:11.194Z,2.33
2022-10-16T13:23:44.183Z,1.80
2022-10-16T13:26:27.089Z,1.40
2022-10-16T13:28:56.683Z,1.87
2022-10-16T13:31:27.846Z,1.40
2022-10-16T13:34:00.283Z,1.20
2022-10-16T13:36:31.445Z,1.50
2022-10-16T13:39:18.067Z,1.33
2022-10-16T13:41:50.909Z,4.50
2022-10-16T13:44:23.306Z,1.40
2022-10-16T13:47:02.236Z,2.07
2022-10-16T13:49:31.649Z,1.40
2022-10-16T13:52:02.433Z,1.33
2022-10-16T13:54:32.425Z,1.30
2022-10-16T13:57:26.196Z,1.27
2022-10-16T13:59:57.503Z,1.40
2022-10-16T14:02:30.571Z,2.50
2022-10-16T14:05:01.156Z,1.60
2022-10-16T14:07:32.597Z,2.03
2022-10-16T14:10:06.313Z,1.60
2022-10-16T14:12:38.785Z,1.77
2022-10-16T14:15:19.369Z,1.90
2022-10-16T14:17:49.689Z,1.70
2022-10-16T14:20:19.853Z,4.97
2022-10-16T14:22:49.520Z,1.23
2022-10-16T14:25:30.140Z,1.87
2022-10-16T14:28:19.677Z,1.43
2022-10-16T14:30:57.123Z,1.70
2022-10-16T14:33:29.051Z,1.27
2022-10-16T14:36:07.414Z,1.40
2022-10-16T14:38:37.364Z,1.63
2022-10-16T14:41:07.742Z,1.10
2022-10-16T14:43:40.863Z,1.30
2022-10-16T14:46:16.714Z,1.80
2022-10-16T14:48:46.747Z,1.40
2022-10-16T14:51:17.661Z,0.80
2022-10-16T14:53:47.219Z,1.50
2022-10-16T14:56:20.388Z,2.07
2022-10-16T14:58:53.993Z,4.13
2022-10-16T15:01:23.807Z,1.40
2022-10-16T15:03:53.698Z,2.67
2022-10-16T15:06:23.159Z,7.43
2022-10-16T15:08:52.857Z,1.47
2022-10-16T15:11:22.789Z,2.30
2022-10-16T15:13:54.745Z,3.27
2022-10-16T15:16:24.124Z,2.67
2022-10-16T15:18:54.074Z,2.27
2022-10-16T15:21:27.150Z,1.80
2022-10-16T15:23:57.541Z,2.40
2022-10-16T15:26:27.219Z,2.43
2022-10-16T15:28:59.283Z,2.77
2022-10-16T15:31:28.882Z,1.97
2022-10-16T15:34:04.762Z,1.23
2022-10-16T15:36:37.664Z,1.40
2022-10-16T15:39:07.178Z,1.00
2022-10-16T15:41:36.576Z,1.93
2022-10-16T15:44:08.611Z,2.03
2022-10-16T15:46:38.361Z,7.07
2022-10-16T15:49:07.971Z,27.03
2022-10-16T15:51:37.380Z,25.13
2022-10-16T15:54:06.892Z,8.03
2022-10-16T15:56:37.964Z,2.67
2022-10-16T15:59:10.125Z,5.87
2022-10-16T16:01:39.921Z,13.50
2022-10-16T16:04:15.585Z,12.90
2022-10-16T16:06:55.035Z,10.00
2022-10-16T16:09:24.399Z,2.43
2022-10-16T16:11:53.796Z,1.53
2022-10-16T16:14:27.117Z,4.50
2022-10-16T16:16:56.914Z,1.40
2022-10-16T16:19:26.615Z,1.77
2022-10-16T16:21:56.076Z,2.27
2022-10-16T16:24:25.496Z,1.80
2022-10-16T16:26:54.881Z,1.47
2022-10-16T16:29:26.890Z,1.73
2022-10-16T16:31:58.288Z,1.50
2022-10-16T16:34:28.352Z,1.53
2022-10-16T16:36:57.740Z,1.50
2022-10-16T16:39:27.847Z,1.20
2022-10-16T16:41:59.387Z,1.43
2022-10-16T16:44:31.348Z,2.17
2022-10-16T16:47:00.711Z,1.30
2022-10-16T16:49:30.072Z,1.80
2022-10-16T16:51:59.487Z,5.90
2022-10-16T16:54:29.015Z,4.73
2022-10-16T16:56:58.422Z,9.00
2022-10-16T16:59:27.821Z,5.03
2022-10-16T17:01:59.771Z,2.10
2022-10-16T17:04:29.434Z,4.87
2022-10-16T17:06:59.090Z,5.80
2022-10-16T17:09:28.584Z,3.60
2022-10-16T17:11:58.042Z,3.50
2022-10-16T17:14:27.406Z,11.47
2022-10-16T17:16:59.600Z,8.17
2022-10-16T17:19:29.008Z,3.23
2022-10-16T17:21:58.440Z,3.50
2022-10-16T17:24:27.892Z,15.97
2022-10-16T17:26:58.032Z,7.30
2022-10-16T17:29:27.442Z,6.87
2022-10-16T17:31:59.803Z,4.57
2022-10-16T17:34:29.300Z,4.37
2022-10-16T17:36:58.802Z,6.23
2022-10-16T17:39:28.233Z,7.03
2022-10-16T17:41:57.618Z,5.30
2022-10-16T17:44:27.029Z,5.90
2022-10-16T17:46:59.002Z,5.50
2022-10-16T17:49:28.417Z,5.30
2022-10-16T17:51:59.027Z,6.17
2022-10-16T17:54:28.383Z,5.20
2022-10-16T17:56:57.797Z,4.90
2022-10-16T17:59:28.194Z,3.20
2022-10-16T18:02:00.269Z,7.50
2022-10-16T18:04:29.759Z,3.70
2022-10-16T18:07:00.466Z,4.77
2022-10-16T18:09:29.985Z,4.97
2022-10-16T18:12:02.265Z,4.40
2022-10-16T18:14:32.927Z,4.13
2022-10-16T18:17:04.966Z,4.27
2022-10-16T18:19:34.380Z,4.80
2022-10-16T18:22:03.785Z,5.60
2022-10-16T18:24:34.615Z,5.07
2022-10-16T18:27:04.020Z,4.20
2022-10-16T18:29:33.479Z,6.90
2022-10-16T18:32:05.473Z,9.60
2022-10-16T18:34:37.567Z,10.90
2022-10-16T18:37:07.003Z,9.53
2022-10-16T18:39:36.423Z,9.87
2022-10-16T18:42:05.989Z,7.07
2022-10-16T18:44:35.567Z,6.87
2022-10-16T18:47:07.611Z,6.73
2022-10-16T18:49:37.035Z,5.77
2022-10-16T18:52:06.606Z,4.00
2022-10-16T18:54:37.556Z,3.60
2022-10-16T18:57:07.129Z,4.20
2022-10-16T18:59:36.549Z,5.03
2022-10-16T19:02:08.580Z,5.30
2022-10-16T19:04:38.592Z,10.70
2022-10-16T19:07:08.029Z,6.43
2022-10-16T19:09:37.595Z,4.30
2022-10-16T19:12:08.236Z,4.40
2022-10-16T19:14:38.039Z,4.87
2022-10-16T19:17:10.035Z,5.33
2022-10-16T19:19:40.354Z,5.03
2022-10-16T19:22:28.200Z,5.30
2022-10-16T19:24:57.973Z,4.13
2022-10-16T19:27:27.440Z,6.03
2022-10-16T19:29:56.833Z,5.20
2022-10-16T19:32:29.178Z,3.70
2022-10-16T19:34:58.851Z,3.80
2022-10-16T19:37:28.427Z,4.27
2022-10-16T19:39:57.790Z,4.40
2022-10-16T19:42:27.440Z,4.57
2022-10-16T19:44:56.998Z,3.30
2022-10-16T19:47:28.985Z,3.67
2022-10-16T19:49:58.418Z,3.10
2022-10-16T19:52:29.918Z,4.40
2022-10-16T19:55:00.040Z,5.53
2022-10-16T19:57:29.773Z,5.40
2022-10-16T19:59:59.187Z,6.77
2022-10-16T20:02:31.193Z,5.70
2022-10-16T20:05:00.592Z,4.73
2022-10-16T20:07:32.578Z,6.63
2022-10-16T20:10:04.141Z,6.20
2022-10-16T20:12:33.546Z,5.37
2022-10-16T20:15:03.872Z,5.40
2022-10-16T20:17:35.848Z,5.37
2022-10-16T20:20:05.250Z,5.47
2022-10-16T20:22:34.627Z,5.97
2022-10-16T20:25:07.166Z,7.73
2022-10-16T20:27:39.427Z,5.73
2022-10-16T20:30:10.124Z,7.20
2022-10-16T20:32:42.346Z,6.90
2022-10-16T20:35:12.403Z,6.80
2022-10-16T20:37:44.705Z,6.40
2022-10-16T20:40:15.456Z,7.60
2022-10-16T20:42:44.849Z,6.20
2022-10-16T20:45:14.240Z,6.43
2022-10-16T20:47:46.198Z,5.90
2022-10-16T20:50:16.364Z,5.20
2022-10-16T20:52:45.820Z,6.47
2022-10-16T20:55:16.097Z,6.93
2022-10-16T20:57:45.523Z,6.10
2022-10-16T21:00:16.305Z,6.53
2022-10-16T21:02:48.302Z,6.03
2022-10-16T21:05:17.883Z,6.20
2022-10-16T21:07:47.307Z,6.10
2022-10-16T21:10:16.717Z,5.97
2022-10-16T21:12:46.122Z,6.17
2022-10-16T21:15:15.986Z,5.30
2022-10-16T21:17:48.026Z,9.70
2022-10-16T21:20:17.571Z,7.40
2022-10-16T21:22:46.976Z,9.60
2022-10-16T21:25:16.394Z,7.57
2022-10-16T21:27:46.021Z,6.67
2022-10-16T21:30:15.537Z,14.60
2022-10-16T21:32:44.927Z,16.53
2022-10-16T21:35:17.838Z,9.53
2022-10-16T21:37:51.229Z,9.70
2022-10-16T21:40:20.606Z,6.40
2022-10-16T21:42:49.996Z,7.00
2022-10-16T21:45:19.380Z,6.33
2022-10-16T21:47:49.969Z,7.33
2022-10-16T21:50:22.058Z,8.13
2022-10-16T21:52:51.442Z,7.70
2022-10-16T21:55:20.828Z,6.67
2022-10-16T21:57:50.242Z,5.90
2022-10-16T22:00:19.846Z,6.00
2022-10-16T22:02:49.223Z,6.03
2022-10-16T22:05:18.666Z,7.17
2022-10-16T22:07:50.641Z,6.87
2022-10-16T22:10:20.178Z,6.83
2022-10-16T22:12:49.586Z,6.10
2022-10-16T22:15:19.077Z,6.40
2022-10-16T22:17:48.480Z,5.90
2022-10-16T22:20:17.886Z,6.00
2022-10-16T22:22:49.865Z,5.50
2022-10-16T22:25:19.341Z,5.40
2022-10-16T22:27:48.702Z,6.60
2022-10-16T22:30:18.190Z,5.77
2022-10-16T22:32:47.559Z,5.87
2022-10-16T22:35:17.054Z,6.03
2022-10-16T22:37:46.473Z,6.47
2022-10-16T22:40:18.711Z,6.23
2022-10-16T22:45:38.658Z,5.70
2022-10-16T22:48:08.771Z,5.20
2022-10-16T22:50:38.164Z,5.40
2022-10-16T22:53:07.753Z,5.30
2022-10-16T22:55:39.728Z,6.13
2022-10-16T22:58:09.090Z,4.60
2022-10-16T23:00:38.630Z,5.33
2022-10-16T23:03:08.221Z,5.00
2022-10-16T23:05:40.886Z,5.37
2022-10-16T23:08:11.071Z,5.00
2022-10-16T23:10:44.833Z,4.87
2022-10-16T23:13:14.912Z,4.83
2022-10-16T23:15:44.954Z,4.87
2022-10-16T23:18:14.760Z,5.60
2022-10-16T23:20:44.409Z,5.50
2022-10-16T23:23:14.006Z,5.53
2022-10-16T23:25:50.063Z,6.00
2022-10-16T23:28:19.460Z,5.47
2022-10-16T23:30:48.841Z,5.10
2022-10-16T23:33:18.264Z,4.77
2022-10-16T23:35:47.714Z,5.20
2022-10-16T23:38:17.099Z,5.57
2022-10-16T23:40:46.534Z,5.00
2022-10-16T23:43:18.504Z,5.07
2022-10-16T23:45:47.870Z,4.77
2022-10-16T23:48:17.317Z,4.27
2022-10-16T23:50:46.789Z,5.13
2022-10-16T23:53:17.075Z,4.80
2022-10-16T23:55:46.543Z,5.73
2022-10-16T23:58:18.765Z,5.17
